createdAt,value
2019-03-13T00:01:45.347Z,24.17
2019-03-13T00:04:16.766Z,23.20
2019-03-13T00:06:48.255Z,24.70
2019-03-13T00:09:19.670Z,24.00
2019-03-13T00:11:51.051Z,23.70
2019-03-13T00:14:22.526Z,24.03
2019-03-13T00:16:54.104Z,23.73
2019-03-13T00:19:25.514Z,24.70
2019-03-13T00:21:57.055Z,24.47
2019-03-13T00:24:28.522Z,24.97
2019-03-13T00:26:59.869Z,24.13
2019-03-13T00:29:31.401Z,24.00
2019-03-13T00:32:03.695Z,23.53
2019-03-13T00:34:35.146Z,23.97
2019-03-13T00:37:06.681Z,23.07
2019-03-13T00:39:38.057Z,23.70
2019-03-13T00:42:11.001Z,24.50
2019-03-13T00:44:42.431Z,23.67
2019-03-13T00:47:14.561Z,24.67
2019-03-13T00:49:46.039Z,24.30
2019-03-13T00:52:17.368Z,24.03
2019-03-13T00:54:49.852Z,24.33
2019-03-13T00:57:21.186Z,22.97
2019-03-13T00:59:53.904Z,23.67
2019-03-13T01:02:34.945Z,23.47
2019-03-13T01:05:31.985Z,23.30
2019-03-13T01:08:03.357Z,23.87
2019-03-13T01:10:34.865Z,23.23
2019-03-13T01:13:06.298Z,24.57
2019-03-13T01:15:37.780Z,23.50
2019-03-13T01:18:09.983Z,23.33
2019-03-13T01:20:41.984Z,23.70
2019-03-13T01:23:14.183Z,24.43
2019-03-13T01:25:46.140Z,24.43
2019-03-13T01:28:18.254Z,24.40
2019-03-13T01:30:59.099Z,24.13
2019-03-13T01:33:31.356Z,24.47
2019-03-13T01:36:04.421Z,24.00
2019-03-13T01:38:36.419Z,23.03
2019-03-13T01:41:08.421Z,24.77
2019-03-13T01:43:40.577Z,24.57
2019-03-13T01:46:12.574Z,25.23
2019-03-13T01:48:44.740Z,26.07
2019-03-13T01:51:16.774Z,25.83
2019-03-13T01:53:48.699Z,25.03
2019-03-13T01:56:20.628Z,25.50
2019-03-13T01:58:53.939Z,25.83
2019-03-13T02:01:26.079Z,26.43
2019-03-13T02:03:58.228Z,25.77
2019-03-13T02:06:30.302Z,26.13
2019-03-13T02:09:02.500Z,26.13
2019-03-13T02:11:35.660Z,27.03
2019-03-13T02:14:07.827Z,26.93
2019-03-13T02:16:39.858Z,27.73
2019-03-13T02:19:11.932Z,28.33
2019-03-13T02:21:43.975Z,29.17
2019-03-13T02:24:16.097Z,28.83
2019-03-13T02:26:48.098Z,28.17
2019-03-13T02:29:20.438Z,27.30
2019-03-13T02:31:52.565Z,28.70
2019-03-13T02:34:24.661Z,29.60
2019-03-13T02:36:56.723Z,27.43
2019-03-13T02:39:29.272Z,28.23
2019-03-13T02:42:01.572Z,29.20
2019-03-13T02:44:34.060Z,28.37
2019-03-13T02:47:06.454Z,28.07
2019-03-13T02:49:38.412Z,29.73
2019-03-13T02:52:11.218Z,29.53
2019-03-13T02:54:43.341Z,29.23
2019-03-13T02:57:15.682Z,29.90
2019-03-13T02:59:47.740Z,29.17
2019-03-13T03:02:38.681Z,30.03
2019-03-13T03:05:10.935Z,28.70
2019-03-13T03:07:42.911Z,27.77
2019-03-13T03:10:15.315Z,29.83
2019-03-13T03:12:47.417Z,28.90
2019-03-13T03:15:19.855Z,28.17
2019-03-13T03:17:51.793Z,29.20
2019-03-13T03:20:23.649Z,28.47
2019-03-13T03:22:55.570Z,27.70
2019-03-13T03:25:27.657Z,28.30
2019-03-13T03:27:59.794Z,27.40
2019-03-13T03:30:31.887Z,27.03
2019-03-13T03:33:03.894Z,27.40
2019-03-13T03:35:36.007Z,26.20
2019-03-13T03:38:08.272Z,27.27
2019-03-13T03:40:40.317Z,28.10
2019-03-13T03:43:12.417Z,25.03
2019-03-13T03:45:44.410Z,25.70
2019-03-13T03:48:16.277Z,26.30
2019-03-13T03:50:48.356Z,25.73
2019-03-13T03:53:20.379Z,23.60
2019-03-13T03:55:52.293Z,24.40
2019-03-13T03:58:28.692Z,24.27
2019-03-13T04:00:58.047Z,24.80
2019-03-13T04:03:29.974Z,23.80
2019-03-13T04:06:02.133Z,23.77
2019-03-13T04:08:37.520Z,22.30
2019-03-13T04:11:07.660Z,22.20
2019-03-13T04:13:39.807Z,22.67
2019-03-13T04:16:11.594Z,23.00
2019-03-13T04:18:43.575Z,22.03
2019-03-13T04:21:15.437Z,21.73
2019-03-13T04:23:47.718Z,21.97
2019-03-13T04:26:19.726Z,21.50
2019-03-13T04:28:51.774Z,20.87
2019-03-13T04:31:23.797Z,21.90
2019-03-13T04:33:55.695Z,21.43
2019-03-13T04:36:27.594Z,20.13
2019-03-13T04:38:59.654Z,20.60
2019-03-13T04:41:31.679Z,20.70
2019-03-13T04:44:03.547Z,21.40
2019-03-13T04:46:35.456Z,20.23
2019-03-13T04:49:07.276Z,19.90
2019-03-13T04:51:39.412Z,19.83
2019-03-13T04:54:11.328Z,18.60
2019-03-13T04:56:43.428Z,18.87
2019-03-13T04:59:15.254Z,18.20
2019-03-13T05:01:47.314Z,18.20
2019-03-13T05:04:19.248Z,18.03
2019-03-13T05:06:51.110Z,18.83
2019-03-13T05:09:41.965Z,16.40
2019-03-13T05:12:13.864Z,17.90
2019-03-13T05:14:45.521Z,18.77
2019-03-13T05:17:17.518Z,18.70
2019-03-13T05:19:49.337Z,19.07
2019-03-13T05:22:21.313Z,17.87
2019-03-13T05:24:53.163Z,17.03
2019-03-13T05:27:24.993Z,17.73
2019-03-13T05:29:56.877Z,17.43
2019-03-13T05:32:28.719Z,16.03
2019-03-13T05:35:00.434Z,18.20
2019-03-13T05:37:32.518Z,17.03
2019-03-13T05:40:04.524Z,16.90
2019-03-13T05:42:36.457Z,16.17
2019-03-13T05:45:08.629Z,17.30
2019-03-13T05:47:40.718Z,16.83
2019-03-13T05:50:12.855Z,15.50
2019-03-13T05:52:45.443Z,16.90
2019-03-13T05:55:17.301Z,15.90
2019-03-13T05:57:49.405Z,16.23
2019-03-13T06:00:22.293Z,15.40
2019-03-13T06:02:54.293Z,13.40
2019-03-13T06:05:25.990Z,13.73
2019-03-13T06:07:58.227Z,13.83
2019-03-13T06:10:30.329Z,15.00
2019-03-13T06:13:02.364Z,13.70
2019-03-13T06:15:34.305Z,13.87
2019-03-13T06:18:09.642Z,14.40
2019-03-13T06:20:40.285Z,13.90
2019-03-13T06:23:12.433Z,13.57
2019-03-13T06:25:44.625Z,14.10
2019-03-13T06:28:16.649Z,13.43
2019-03-13T06:30:49.648Z,13.90
2019-03-13T06:33:21.740Z,12.33
2019-03-13T06:35:53.940Z,13.00
2019-03-13T06:38:26.021Z,13.63
2019-03-13T06:40:58.413Z,13.40
2019-03-13T06:43:30.528Z,13.47
2019-03-13T06:46:02.716Z,14.07
2019-03-13T06:48:35.226Z,13.43
2019-03-13T06:51:07.566Z,12.40
2019-03-13T06:53:39.729Z,12.73
2019-03-13T06:56:12.889Z,13.07
2019-03-13T06:58:51.726Z,13.27
2019-03-13T07:01:39.185Z,13.20
2019-03-13T07:04:33.336Z,12.60
2019-03-13T07:07:30.313Z,12.43
2019-03-13T07:10:36.519Z,11.53
2019-03-13T07:13:36.494Z,11.07
2019-03-13T07:16:31.025Z,11.43
2019-03-13T07:19:17.906Z,10.20
2019-03-13T07:21:57.825Z,9.90
2019-03-13T07:24:59.566Z,10.13
2019-03-13T07:27:54.276Z,10.03
2019-03-13T07:30:38.266Z,9.00
2019-03-13T07:33:28.805Z,9.23
2019-03-13T07:36:08.007Z,9.20
2019-03-13T07:38:50.499Z,9.23
2019-03-13T07:41:36.596Z,9.77
2019-03-13T07:44:30.435Z,8.33
2019-03-13T07:47:12.270Z,9.90
2019-03-13T07:50:02.394Z,8.57
2019-03-13T07:52:53.590Z,8.33
2019-03-13T07:55:43.241Z,8.07
2019-03-13T07:58:23.370Z,8.80
2019-03-13T08:01:12.604Z,8.57
2019-03-13T08:04:18.924Z,7.77
2019-03-13T08:07:02.311Z,8.47
2019-03-13T08:10:05.719Z,8.57
2019-03-13T08:13:05.687Z,8.83
2019-03-13T08:15:59.351Z,8.60
2019-03-13T08:18:56.141Z,7.80
2019-03-13T08:21:45.732Z,8.57
2019-03-13T08:24:35.014Z,10.20
2019-03-13T08:27:26.365Z,8.70
2019-03-13T08:30:15.969Z,9.77
2019-03-13T08:33:04.316Z,8.60
2019-03-13T08:35:54.977Z,8.33
2019-03-13T08:38:34.369Z,10.10
2019-03-13T08:41:28.235Z,9.70
2019-03-13T08:44:12.818Z,9.53
2019-03-13T08:47:06.273Z,8.77
2019-03-13T08:49:56.966Z,9.90
2019-03-13T08:52:37.430Z,8.40
2019-03-13T08:55:17.777Z,8.77
2019-03-13T08:58:02.298Z,9.07
2019-03-13T09:00:52.451Z,8.47
2019-03-13T09:03:32.212Z,8.30
2019-03-13T09:06:29.276Z,8.60
2019-03-13T09:09:26.176Z,8.80
2019-03-13T09:12:08.862Z,9.13
2019-03-13T09:15:01.809Z,8.67
2019-03-13T09:17:49.308Z,8.77
2019-03-13T09:20:32.121Z,9.10
2019-03-13T09:23:31.788Z,8.93
2019-03-13T09:26:21.460Z,8.90
2019-03-13T09:29:06.635Z,8.20
2019-03-13T09:31:55.161Z,9.20
2019-03-13T09:34:42.017Z,8.80
2019-03-13T09:37:31.248Z,8.53
2019-03-13T09:40:20.529Z,8.20
2019-03-13T09:43:00.111Z,8.43
2019-03-13T09:46:06.369Z,7.80
2019-03-13T09:49:15.458Z,7.03
2019-03-13T09:52:12.041Z,7.77
2019-03-13T09:55:15.180Z,7.83
2019-03-13T09:58:05.931Z,8.10
2019-03-13T10:01:08.834Z,7.83
2019-03-13T10:03:58.189Z,8.07
2019-03-13T10:06:46.009Z,8.60
2019-03-13T10:09:41.006Z,9.20
2019-03-13T10:12:21.819Z,8.20
2019-03-13T10:15:16.920Z,8.30
2019-03-13T10:18:10.738Z,7.87
2019-03-13T10:21:16.868Z,7.73
2019-03-13T10:24:07.477Z,7.73
2019-03-13T10:26:52.541Z,7.80
2019-03-13T10:29:46.176Z,8.20
2019-03-13T10:32:43.039Z,8.27
2019-03-13T10:35:34.211Z,8.37
2019-03-13T10:38:24.269Z,7.60
2019-03-13T10:41:21.102Z,8.40
2019-03-13T10:44:06.611Z,8.23
2019-03-13T10:46:57.650Z,8.53
2019-03-13T10:49:34.100Z,8.60
2019-03-13T10:52:34.331Z,8.90
2019-03-13T10:55:40.621Z,8.67
2019-03-13T10:58:22.601Z,8.40
2019-03-13T11:01:06.480Z,8.77
2019-03-13T11:03:48.987Z,8.43
2019-03-13T11:06:57.837Z,9.27
2019-03-13T11:09:51.388Z,8.70
2019-03-13T11:12:49.739Z,9.10
2019-03-13T11:15:30.729Z,8.13
2019-03-13T11:18:13.694Z,7.67
2019-03-13T11:21:07.325Z,9.03
2019-03-13T11:23:51.991Z,10.13
2019-03-13T11:26:52.142Z,9.20
2019-03-13T11:29:39.178Z,8.17
2019-03-13T11:32:19.807Z,10.07
2019-03-13T11:35:12.910Z,8.40
2019-03-13T11:38:06.431Z,8.83
2019-03-13T11:41:06.074Z,8.70
2019-03-13T11:43:53.191Z,9.33
2019-03-13T11:46:42.983Z,9.50
2019-03-13T11:49:29.931Z,9.27
2019-03-13T11:52:23.484Z,10.03
2019-03-13T11:55:29.666Z,9.90
2019-03-13T11:58:29.085Z,9.97
2019-03-13T12:01:25.816Z,10.47
2019-03-13T12:04:15.331Z,10.23
2019-03-13T12:07:21.891Z,10.80
2019-03-13T12:10:04.741Z,11.13
2019-03-13T12:12:54.249Z,11.13
2019-03-13T12:15:48.530Z,10.77
2019-03-13T12:18:42.811Z,10.20
2019-03-13T12:21:39.661Z,10.47
2019-03-13T12:24:29.361Z,10.80
2019-03-13T12:27:23.767Z,10.60
2019-03-13T12:30:26.534Z,11.23
2019-03-13T12:33:20.246Z,11.67
2019-03-13T12:36:10.757Z,10.83
2019-03-13T12:38:52.958Z,10.77
2019-03-13T12:41:43.241Z,10.70
2019-03-13T12:44:32.712Z,10.77
2019-03-13T12:47:26.473Z,10.20
2019-03-13T12:50:26.175Z,10.20
2019-03-13T12:53:10.075Z,10.13
2019-03-13T12:56:10.136Z,10.70
2019-03-13T12:59:04.216Z,10.37
2019-03-13T13:01:53.873Z,10.10
2019-03-13T13:04:50.942Z,10.67
2019-03-13T13:07:53.099Z,9.83
2019-03-13T13:10:43.991Z,10.07
2019-03-13T13:13:43.898Z,10.13
2019-03-13T13:16:32.661Z,10.67
2019-03-13T13:19:04.605Z,9.97
2019-03-13T13:21:37.026Z,8.80
2019-03-13T13:24:09.326Z,8.57
2019-03-13T13:26:41.213Z,9.13
2019-03-13T13:29:13.175Z,9.50
2019-03-13T13:31:45.250Z,8.27
2019-03-13T13:34:17.224Z,8.73
2019-03-13T13:36:49.185Z,8.27
2019-03-13T13:39:20.977Z,8.17
2019-03-13T13:41:52.800Z,7.70
2019-03-13T13:44:24.945Z,8.47
2019-03-13T13:46:57.116Z,8.43
2019-03-13T13:49:29.033Z,8.63
2019-03-13T13:52:01.151Z,7.80
2019-03-13T13:54:33.014Z,7.97
2019-03-13T13:57:06.066Z,6.60
2019-03-13T13:59:38.225Z,6.80
2019-03-13T14:02:11.333Z,6.73
2019-03-13T14:04:43.327Z,5.77
2019-03-13T14:07:15.294Z,5.60
2019-03-13T14:09:47.202Z,5.00
2019-03-13T14:12:20.153Z,5.00
2019-03-13T14:14:53.526Z,4.90
2019-03-13T14:17:25.332Z,5.07
2019-03-13T14:19:57.262Z,5.00
2019-03-13T14:22:29.596Z,4.83
2019-03-13T14:25:01.568Z,4.47
2019-03-13T14:27:33.673Z,5.00
2019-03-13T14:30:06.870Z,4.70
2019-03-13T14:32:38.874Z,4.70
2019-03-13T14:35:10.826Z,4.43
2019-03-13T14:37:42.880Z,5.10
2019-03-13T14:40:15.336Z,4.90
2019-03-13T14:42:47.240Z,4.80
2019-03-13T14:45:19.518Z,4.70
2019-03-13T14:47:51.971Z,4.40
2019-03-13T14:50:23.903Z,4.87
2019-03-13T14:52:57.352Z,4.43
2019-03-13T14:55:29.525Z,5.20
2019-03-13T14:58:01.521Z,5.03
2019-03-13T15:00:33.933Z,4.47
2019-03-13T15:03:06.273Z,4.93
2019-03-13T15:05:38.275Z,5.00
2019-03-13T15:08:10.416Z,5.07
2019-03-13T15:10:42.573Z,4.60
2019-03-13T15:13:14.481Z,4.83
2019-03-13T15:15:46.815Z,4.70
2019-03-13T15:18:18.795Z,4.30
2019-03-13T15:20:50.805Z,4.50
2019-03-13T15:23:22.637Z,5.90
2019-03-13T15:25:54.733Z,4.80
2019-03-13T15:28:26.573Z,4.40
2019-03-13T15:30:58.358Z,5.10
2019-03-13T15:33:30.195Z,4.53
2019-03-13T15:36:02.379Z,4.93
2019-03-13T15:38:34.310Z,5.50
2019-03-13T15:41:06.468Z,5.00
2019-03-13T15:43:38.218Z,5.37
2019-03-13T15:46:10.208Z,5.93
2019-03-13T15:48:42.206Z,5.30
2019-03-13T15:51:14.382Z,5.50
2019-03-13T15:53:46.472Z,4.90
2019-03-13T15:56:18.725Z,5.83
2019-03-13T15:58:50.549Z,6.10
2019-03-13T16:01:22.549Z,5.43
2019-03-13T16:03:54.649Z,5.87
2019-03-13T16:06:26.586Z,5.90
2019-03-13T16:08:58.413Z,5.50
2019-03-13T16:11:30.454Z,6.23
2019-03-13T16:14:02.478Z,5.93
2019-03-13T16:16:34.373Z,5.83
2019-03-13T16:19:06.313Z,5.57
2019-03-13T16:21:38.576Z,5.83
2019-03-13T16:24:10.596Z,6.20
2019-03-13T16:26:42.638Z,6.30
2019-03-13T16:29:15.045Z,6.00
2019-03-13T16:31:47.263Z,6.80
2019-03-13T16:34:19.757Z,7.10
2019-03-13T16:36:51.833Z,6.27
2019-03-13T16:39:25.056Z,6.53
2019-03-13T16:41:57.059Z,6.17
2019-03-13T16:44:29.120Z,7.10
2019-03-13T16:47:00.903Z,6.60
2019-03-13T16:49:33.288Z,7.27
2019-03-13T16:52:05.248Z,6.60
2019-03-13T16:54:37.295Z,6.63
2019-03-13T16:57:09.146Z,6.90
2019-03-13T16:59:41.369Z,7.30
2019-03-13T17:02:13.343Z,7.30
2019-03-13T17:04:45.478Z,7.57
2019-03-13T17:07:17.636Z,7.80
2019-03-13T17:09:49.501Z,8.10
2019-03-13T17:12:21.678Z,7.90
2019-03-13T17:14:53.564Z,7.90
2019-03-13T17:17:25.550Z,8.70
2019-03-13T17:19:57.542Z,8.00
2019-03-13T17:22:29.409Z,8.67
2019-03-13T17:25:01.490Z,8.93
2019-03-13T17:27:34.713Z,8.67
2019-03-13T17:30:08.597Z,8.90
2019-03-13T17:32:40.771Z,8.73
2019-03-13T17:35:13.249Z,10.40
2019-03-13T17:37:45.305Z,10.77
2019-03-13T17:40:19.155Z,10.17
2019-03-13T17:42:51.145Z,9.87
2019-03-13T17:45:23.831Z,10.13
2019-03-13T17:47:56.297Z,9.60
2019-03-13T17:50:28.435Z,9.70
2019-03-13T17:53:00.289Z,10.23
2019-03-13T17:55:32.431Z,10.97
2019-03-13T17:58:04.333Z,10.57
2019-03-13T18:00:42.470Z,11.00
2019-03-13T18:03:14.481Z,11.63
2019-03-13T18:05:46.514Z,12.40
2019-03-13T18:08:18.330Z,13.10
2019-03-13T18:10:50.271Z,13.30
2019-03-13T18:13:22.290Z,12.93
2019-03-13T18:15:54.758Z,12.97
2019-03-13T18:18:26.618Z,12.73
2019-03-13T18:20:58.808Z,13.47
2019-03-13T18:23:30.587Z,12.57
2019-03-13T18:26:02.493Z,12.73
2019-03-13T18:28:34.438Z,13.17
2019-03-13T18:31:06.709Z,13.20
2019-03-13T18:33:38.786Z,15.00
2019-03-13T18:36:14.097Z,14.30
2019-03-13T18:38:45.466Z,15.43
2019-03-13T18:41:17.601Z,14.13
2019-03-13T18:43:50.613Z,14.13
2019-03-13T18:46:22.820Z,14.93
2019-03-13T18:48:54.634Z,15.53
2019-03-13T18:51:26.628Z,15.53
2019-03-13T18:53:58.828Z,16.17
2019-03-13T18:56:38.525Z,15.70
2019-03-13T18:59:11.994Z,14.80
2019-03-13T19:01:44.923Z,14.80
2019-03-13T19:04:16.839Z,16.33
2019-03-13T19:06:49.426Z,15.43
2019-03-13T19:09:21.417Z,16.00
2019-03-13T19:11:53.221Z,16.20
2019-03-13T19:14:25.058Z,16.07
2019-03-13T19:16:56.861Z,17.30
2019-03-13T19:19:28.756Z,17.63
2019-03-13T19:22:00.998Z,16.87
2019-03-13T19:24:32.979Z,16.47
2019-03-13T19:27:05.137Z,17.73
2019-03-13T19:29:37.006Z,17.83
2019-03-13T19:32:08.778Z,16.93
2019-03-13T19:34:40.638Z,17.77
2019-03-13T19:37:12.526Z,17.53
2019-03-13T19:39:44.456Z,18.10
2019-03-13T19:42:17.504Z,19.33
2019-03-13T19:44:49.656Z,19.50
2019-03-13T19:47:21.448Z,17.80
2019-03-13T19:49:53.227Z,18.53
2019-03-13T19:52:26.233Z,17.97
2019-03-13T19:54:58.018Z,18.13
2019-03-13T19:57:29.769Z,17.80
2019-03-13T20:00:01.664Z,18.33
2019-03-13T20:02:35.160Z,17.57
2019-03-13T20:05:07.338Z,18.30
2019-03-13T20:07:39.340Z,18.37
2019-03-13T20:10:14.738Z,18.47
2019-03-13T20:12:46.786Z,16.77
2019-03-13T20:15:19.901Z,18.90
2019-03-13T20:17:51.983Z,18.20
2019-03-13T20:20:23.889Z,18.83
2019-03-13T20:22:58.496Z,17.40
2019-03-13T20:25:30.406Z,18.07
2019-03-13T20:28:02.238Z,18.67
2019-03-13T20:30:34.167Z,18.37
2019-03-13T20:33:06.089Z,18.17
2019-03-13T20:35:37.860Z,17.00
2019-03-13T20:38:09.737Z,17.33
2019-03-13T20:40:41.739Z,18.30
2019-03-13T20:43:15.146Z,18.23
2019-03-13T20:45:46.998Z,19.10
2019-03-13T20:48:20.074Z,17.30
2019-03-13T20:50:52.808Z,18.37
2019-03-13T20:53:24.668Z,18.00
2019-03-13T20:55:58.750Z,16.90
2019-03-13T20:58:30.048Z,17.77
2019-03-13T21:01:01.969Z,18.73
2019-03-13T21:03:34.447Z,19.03
2019-03-13T21:06:06.308Z,17.50
2019-03-13T21:08:38.278Z,17.40
2019-03-13T21:11:09.898Z,17.57
2019-03-13T21:13:41.708Z,17.93
2019-03-13T21:16:13.769Z,18.17
2019-03-13T21:18:45.648Z,17.17
2019-03-13T21:21:17.658Z,18.17
2019-03-13T21:23:49.558Z,18.53
2019-03-13T21:26:21.543Z,18.23
2019-03-13T21:28:53.495Z,17.90
2019-03-13T21:31:25.448Z,18.40
2019-03-13T21:33:57.398Z,19.53
2019-03-13T21:36:29.221Z,18.57
2019-03-13T21:39:00.858Z,19.37
2019-03-13T21:41:35.623Z,18.97
2019-03-13T21:44:07.768Z,19.80
2019-03-13T21:46:40.738Z,20.80
2019-03-13T21:49:13.848Z,20.30
2019-03-13T21:51:45.682Z,20.57
2019-03-13T21:54:17.599Z,20.27
2019-03-13T21:56:49.633Z,20.43
2019-03-13T21:59:21.579Z,20.43
2019-03-13T22:01:53.489Z,18.77
2019-03-13T22:04:26.216Z,19.80
2019-03-13T22:06:58.169Z,20.37
2019-03-13T22:09:30.290Z,19.30
2019-03-13T22:12:02.376Z,20.47
2019-03-13T22:14:34.168Z,22.30
2019-03-13T22:17:06.200Z,21.63
2019-03-13T22:19:38.007Z,22.50
2019-03-13T22:22:09.758Z,22.20
2019-03-13T22:24:41.568Z,22.73
2019-03-13T22:27:14.836Z,23.30
2019-03-13T22:29:46.818Z,23.07
2019-03-13T22:32:18.658Z,23.20
2019-03-13T22:34:50.549Z,23.27
2019-03-13T22:37:22.268Z,25.73
2019-03-13T22:39:54.238Z,24.07
2019-03-13T22:42:26.218Z,24.67
2019-03-13T22:44:58.118Z,23.20
2019-03-13T22:47:42.096Z,24.50
2019-03-13T22:50:04.683Z,24.70
2019-03-13T22:52:37.698Z,23.73
2019-03-13T22:55:09.768Z,24.93
2019-03-13T22:57:41.761Z,25.67
2019-03-13T23:00:28.016Z,25.40
2019-03-13T23:03:01.557Z,25.17
2019-03-13T23:05:36.009Z,24.70
2019-03-13T23:08:07.199Z,25.50
2019-03-13T23:10:39.978Z,23.60
2019-03-13T23:13:12.998Z,24.73
2019-03-13T23:15:45.348Z,24.30
2019-03-13T23:18:18.424Z,23.57
2019-03-13T23:20:51.098Z,22.37
2019-03-13T23:23:22.986Z,22.50
2019-03-13T23:25:54.856Z,22.87
2019-03-13T23:28:26.716Z,22.57
2019-03-13T23:30:58.698Z,22.73
2019-03-13T23:33:30.670Z,23.73
2019-03-13T23:36:02.538Z,21.57
2019-03-13T23:38:34.478Z,22.47
2019-03-13T23:41:06.846Z,22.67
2019-03-13T23:43:38.883Z,22.40
2019-03-13T23:46:10.708Z,22.70
2019-03-13T23:48:42.576Z,22.80
2019-03-13T23:51:14.503Z,21.87
2019-03-13T23:53:46.438Z,22.13
2019-03-13T23:56:18.348Z,21.40
2019-03-13T23:58:50.078Z,20.27
